Time;durP1;ratioP1;P1;durP2;ratioP2;P2;SDS_P1;SDS_P2;PMS_P1;PMS_P2;Temp;Humidity;BMP_temperature;BMP_pressure;BME280_temperature;BME280_humidity;BME280_pressure;Samples;Min_cycle;Max_cycle;Signal;HPM_P1;HPM_P2
2024/02/07 00:01:11;;;;;;;2.00;1.10;;;;;;;6.62;81.45;98629.07;104955;1254;138895;-67
2024/02/07 00:03:43;;;;;;;3.50;1.10;;;;;;;6.57;81.46;98648.02;105190;1260;74594;-68
2024/02/07 00:06:13;;;;;;;2.30;1.00;;;;;;;6.57;81.63;98657.62;104944;1260;65745;-61
2024/02/07 00:08:39;;;;;;;1.50;0.70;;;;;;;6.56;81.59;98654.11;104903;1254;138515;-68
2024/02/07 00:11:07;;;;;;;1.60;0.60;;;;;;;6.54;81.38;98658.45;105022;1255;62056;-68
2024/02/07 00:13:33;;;;;;;1.60;0.90;;;;;;;6.54;81.48;98657.59;109036;1254;138003;-68
2024/02/07 00:16:00;;;;;;;3.80;0.70;;;;;;;6.55;81.45;98658.80;109033;1254;76796;-68
2024/02/07 00:18:27;;;;;;;3.30;1.00;;;;;;;6.55;81.37;98655.67;109091;1254;138657;-68
2024/02/07 00:20:54;;;;;;;0.90;0.70;;;;;;;6.56;81.30;98659.88;107252;1254;72381;-68
2024/02/07 00:23:21;;;;;;;1.80;0.90;;;;;;;6.55;81.02;98664.21;109029;1254;60215;-61
2024/02/07 00:25:47;;;;;;;3.70;1.10;;;;;;;6.52;80.85;98669.77;108848;1254;138709;-61
2024/02/07 00:28:14;;;;;;;1.50;0.80;;;;;;;6.49;80.77;98660.69;108967;1254;75466;-66
2024/02/07 00:30:41;;;;;;;3.50;1.00;;;;;;;6.49;80.80;98667.30;105280;1260;138916;-68
2024/02/07 00:33:08;;;;;;;3.40;1.20;;;;;;;6.47;80.62;98663.45;105108;1255;73913;-68
2024/02/07 00:35:34;;;;;;;3.70;1.20;;;;;;;6.46;80.60;98664.48;105065;1259;62085;-68
2024/02/07 00:38:01;;;;;;;3.30;1.10;;;;;;;6.43;80.46;98669.00;104911;1259;139241;-71
2024/02/07 00:40:29;;;;;;;3.40;1.20;;;;;;;6.40;80.44;98684.48;104794;1260;76087;-69
2024/02/07 00:42:56;;;;;;;5.70;1.20;;;;;;;6.38;80.40;98679.59;109044;1254;138988;-69
2024/02/07 00:45:23;;;;;;;5.80;1.00;;;;;;;6.36;80.34;98687.76;109176;1254;71192;-66
2024/02/07 00:47:50;;;;;;;4.90;1.40;;;;;;;6.35;80.27;98685.31;108982;1254;60115;-68
2024/02/07 00:50:16;;;;;;;5.20;1.20;;;;;;;6.36;80.33;98689.15;109051;1254;138425;-67
2024/02/07 00:52:44;;;;;;;7.50;1.60;;;;;;;6.39;80.39;98697.02;107777;1254;74684;-69
2024/02/07 00:55:11;;;;;;;5.20;1.40;;;;;;;6.40;80.40;98692.50;109040;1254;139373;-68
2024/02/07 00:57:38;;;;;;;7.00;1.30;;;;;;;6.39;80.15;98686.91;109058;1260;73709;-67
2024/02/07 01:00:06;;;;;;;3.70;1.20;;;;;;;6.36;79.77;98679.40;109149;1254;60671;-67
2024/02/07 01:02:32;;;;;;;6.40;1.50;;;;;;;6.33;79.51;98669.44;109047;1254;138585;-67
2024/02/07 01:04:59;;;;;;;5.60;1.20;;;;;;;6.31;79.28;98668.04;109178;1254;73382;-67
2024/02/07 01:07:26;;;;;;;5.60;1.40;;;;;;;6.28;78.90;98680.37;109095;1254;138743;-66
2024/02/07 01:09:53;;;;;;;3.30;1.10;;;;;;;6.25;78.67;98685.40;109206;1254;73849;-67
2024/02/07 01:12:20;;;;;;;2.80;1.30;;;;;;;6.23;78.69;98687.30;109086;1254;137885;-67
2024/02/07 01:14:46;;;;;;;4.90;1.70;;;;;;;6.23;78.45;98680.33;109153;1254;60098;-68
2024/02/07 01:17:13;;;;;;;6.10;1.10;;;;;;;6.20;78.04;98672.83;109167;1254;74808;-68
2024/02/07 01:19:39;;;;;;;7.30;1.10;;;;;;;6.16;78.02;98683.92;109096;1254;137647;-68
2024/02/07 01:22:06;;;;;;;3.40;1.20;;;;;;;6.13;77.92;98682.85;108975;1254;73935;-68
2024/02/07 01:24:34;;;;;;;6.20;1.50;;;;;;;6.11;77.80;98678.12;109028;1254;138629;-61
2024/02/07 01:27:01;;;;;;;7.80;1.30;;;;;;;6.08;77.55;98680.00;109160;1254;59978;-61
2024/02/07 01:29:27;;;;;;;5.60;1.10;;;;;;;6.05;77.22;98681.90;109170;1254;76875;-61
2024/02/07 01:31:54;;;;;;;9.70;1.30;;;;;;;6.03;77.10;98698.42;108762;1254;137928;-60
2024/02/07 01:34:21;;;;;;;4.10;1.00;;;;;;;6.02;77.11;98701.20;109177;1254;72285;-60
2024/02/07 01:36:48;;;;;;;3.70;1.20;;;;;;;6.01;76.88;98682.38;105112;1259;137670;-68
2024/02/07 01:39:18;;;;;;;10.10;1.40;;;;;;;5.98;76.68;98688.80;105205;1259;62092;-69
2024/02/07 01:41:57;;;;;;;3.90;1.30;;;;;;;5.95;76.52;98690.32;109183;1254;76483;-67
2024/02/07 01:44:24;;;;;;;10.90;1.50;;;;;;;5.91;76.34;98690.27;109098;1254;137913;-68
2024/02/07 01:46:52;;;;;;;3.20;1.20;;;;;;;5.87;76.15;98709.36;109179;1254;73504;-67
2024/02/07 01:49:18;;;;;;;5.00;1.40;;;;;;;5.80;75.84;98700.76;109065;1260;138154;-67
2024/02/07 01:51:46;;;;;;;4.30;1.60;;;;;;;5.75;75.73;98700.35;109048;1254;59849;-67
2024/02/07 01:54:13;;;;;;;1.60;1.00;;;;;;;5.70;75.42;98692.98;108964;1260;74150;-67
2024/02/07 01:56:39;;;;;;;5.20;1.60;;;;;;;5.66;75.36;98699.56;109043;1254;137876;-67
2024/02/07 01:59:06;;;;;;;7.40;1.40;;;;;;;5.63;75.36;98701.95;108969;1254;73313;-67
2024/02/07 02:01:33;;;;;;;5.10;1.40;;;;;;;5.61;75.21;98704.89;108869;1256;138136;-67
2024/02/07 02:04:00;;;;;;;3.90;1.30;;;;;;;5.59;75.18;98686.23;109042;1254;61392;-67
2024/02/07 02:06:26;;;;;;;5.10;1.30;;;;;;;5.57;75.21;98688.31;108146;1254;137889;-68
2024/02/07 02:08:54;;;;;;;5.90;1.30;;;;;;;5.56;75.26;98694.91;104803;1254;67652;-67
2024/02/07 02:11:29;;;;;;;4.30;1.50;;;;;;;5.54;75.25;98698.36;105027;1263;73888;-67
2024/02/07 02:13:55;;;;;;;4.20;1.20;;;;;;;5.50;75.17;98704.23;104988;1259;138154;-67
2024/02/07 02:16:22;;;;;;;5.40;2.30;;;;;;;5.44;75.25;98703.98;104845;1261;62088;-67
2024/02/07 02:18:48;;;;;;;7.70;2.00;;;;;;;5.40;75.37;98703.41;104972;1260;138873;-69
2024/02/07 02:21:21;;;;;;;3.60;1.50;;;;;;;5.37;75.35;98702.32;105069;1260;66222;-67
2024/02/07 02:23:54;;;;;;;7.90;1.50;;;;;;;5.34;75.28;98701.42;109187;1254;70590;-67
2024/02/07 02:26:37;;;;;;;7.20;1.60;;;;;;;5.31;75.40;98704.34;109084;1254;137875;-67
2024/02/07 02:29:20;;;;;;;8.90;1.70;;;;;;;5.30;75.47;98702.59;107104;1254;62207;-67
2024/02/07 02:31:49;;;;;;;8.10;1.80;;;;;;;5.27;75.35;98700.98;104931;1254;138048;-68
2024/02/07 02:34:16;;;;;;;7.80;1.90;;;;;;;5.24;75.39;98698.68;109248;1254;65289;-68
2024/02/07 02:36:42;;;;;;;9.80;1.40;;;;;;;5.21;75.39;98693.43;108834;1254;138075;-69
2024/02/07 02:39:09;;;;;;;6.20;1.50;;;;;;;5.19;75.32;98693.92;108901;1255;59722;-67
2024/02/07 02:41:35;;;;;;;6.40;1.70;;;;;;;5.17;75.43;98692.69;109168;1254;59949;-67
2024/02/07 02:44:02;;;;;;;5.80;1.90;;;;;;;5.16;75.44;98695.80;108433;1255;138197;-68
2024/02/07 02:46:29;;;;;;;7.10;1.40;;;;;;;5.13;75.42;98694.88;105070;1260;66599;-69
2024/02/07 02:48:56;;;;;;;5.60;1.60;;;;;;;5.12;75.52;98692.42;104895;1258;138393;-68
2024/02/07 02:51:23;;;;;;;8.50;1.70;;;;;;;5.10;75.51;98689.09;105012;1257;62703;-67
2024/02/07 02:53:51;;;;;;;12.10;2.10;;;;;;;5.09;75.50;98682.31;105013;1258;62079;-68
2024/02/07 02:56:17;;;;;;;8.20;1.90;;;;;;;5.07;75.52;98684.36;105052;1254;137789;-68
2024/02/07 02:58:44;;;;;;;11.90;1.70;;;;;;;5.04;75.60;98691.63;105114;1255;66515;-68
2024/02/07 03:01:12;;;;;;;6.40;1.30;;;;;;;5.02;75.58;98687.61;108035;1255;137967;-68
2024/02/07 03:03:41;;;;;;;14.30;1.60;;;;;;;4.99;75.60;98683.05;104761;1261;62159;-68
2024/02/07 03:06:18;;;;;;;11.10;1.80;;;;;;;4.96;75.59;98684.55;109110;1254;61586;-68
2024/02/07 03:08:53;;;;;;;10.20;1.50;;;;;;;4.95;75.59;98692.18;109217;1254;74152;-68
2024/02/07 03:11:23;;;;;;;12.10;2.20;;;;;;;4.96;75.66;98694.99;109205;1254;64749;-68
2024/02/07 03:13:50;;;;;;;13.00;1.70;;;;;;;4.98;75.72;98697.63;109095;1254;138575;-61
2024/02/07 03:16:18;;;;;;;6.50;1.90;;;;;;;5.00;75.72;98702.01;109196;1254;59826;-61
2024/02/07 03:18:45;;;;;;;8.30;2.10;;;;;;;5.02;75.69;98699.08;109104;1254;138149;-61
2024/02/07 03:21:11;;;;;;;9.10;2.30;;;;;;;5.03;75.69;98695.61;108998;1254;76946;-62
2024/02/07 03:23:38;;;;;;;7.20;2.00;;;;;;;5.04;75.60;98691.63;109196;1254;66316;-61
2024/02/07 03:26:05;;;;;;;8.40;2.50;;;;;;;5.05;75.53;98700.01;107970;1254;137428;-60
2024/02/07 03:28:32;;;;;;;10.30;1.90;;;;;;;5.05;75.43;98702.77;105126;1254;62724;-61
2024/02/07 03:30:59;;;;;;;7.80;2.00;;;;;;;5.03;75.44;98708.13;104649;1257;138348;-61
2024/02/07 03:33:25;;;;;;;8.90;1.90;;;;;;;5.02;75.38;98708.64;104794;1260;74749;-61
2024/02/07 03:35:54;;;;;;;6.30;2.00;;;;;;;5.04;75.44;98711.45;104774;1261;65614;-60
2024/02/07 03:38:21;;;;;;;7.50;1.90;;;;;;;5.06;75.41;98714.25;109098;1254;138400;-61
2024/02/07 03:40:49;;;;;;;8.20;1.80;;;;;;;5.06;75.39;98712.17;109171;1256;63221;-61
2024/02/07 03:43:17;;;;;;;11.70;2.70;;;;;;;5.06;75.25;98719.30;108907;1254;138653;-61
2024/02/07 03:45:44;;;;;;;10.20;2.20;;;;;;;5.08;75.21;98717.24;109173;1256;75505;-61
2024/02/07 03:48:13;;;;;;;11.60;2.40;;;;;;;5.10;75.17;98720.75;109177;1254;64721;-62
2024/02/07 03:50:40;;;;;;;7.60;1.70;;;;;;;5.15;74.90;98722.72;107670;1256;137693;-61
2024/02/07 03:53:07;;;;;;;10.10;2.50;;;;;;;5.16;74.73;98714.59;109209;1254;59710;-62
2024/02/07 03:55:37;;;;;;;15.70;2.20;;;;;;;5.17;74.67;98719.63;109082;1256;138186;-61
2024/02/07 03:58:07;;;;;;;11.00;2.30;;;;;;;5.17;74.59;98714.75;109150;1254;76237;-69
2024/02/07 04:00:34;;;;;;;16.60;3.10;;;;;;;5.18;74.53;98715.11;108886;1256;138248;-68
2024/02/07 04:03:00;;;;;;;12.70;2.30;;;;;;;5.17;74.32;98713.54;109156;1254;73906;-68
2024/02/07 04:05:29;;;;;;;10.70;1.70;;;;;;;5.16;74.27;98710.25;109172;1257;60127;-68
2024/02/07 04:07:57;;;;;;;13.30;2.00;;;;;;;5.16;74.17;98711.62;108857;1254;138845;-61
2024/02/07 04:10:23;;;;;;;10.20;2.40;;;;;;;5.16;74.13;98715.10;106103;1254;76518;-60
2024/02/07 05:16:01;;;;;;;18.40;3.60;;;;;;;4.74;74.16;98718.99;105144;1259;62072;-61
2024/02/07 05:18:28;;;;;;;18.70;3.60;;;;;;;4.75;74.33;98714.67;104627;1258;138158;-61
2024/02/07 05:20:55;;;;;;;20.80;3.50;;;;;;;4.79;74.29;98707.96;104957;1256;66564;-61
2024/02/07 05:23:22;;;;;;;14.30;3.10;;;;;;;4.83;74.34;98708.70;105036;1257;72780;-68
2024/02/07 05:25:49;;;;;;;25.40;3.70;;;;;;;4.84;74.28;98710.11;104856;1258;138043;-60
2024/02/07 05:28:16;;;;;;;14.40;3.60;;;;;;;4.81;74.18;98705.03;104805;1256;61980;-68
2024/02/07 05:30:43;;;;;;;23.60;4.20;;;;;;;4.77;74.19;98695.40;104817;1257;139144;-68
2024/02/07 05:33:10;;;;;;;19.30;3.50;;;;;;;4.73;74.21;98692.40;104840;1256;66951;-68
2024/02/07 05:35:36;;;;;;;17.30;4.00;;;;;;;4.74;74.24;98690.15;104921;1256;72453;-61
2024/02/07 05:38:03;;;;;;;17.80;3.70;;;;;;;4.77;74.41;98693.67;104832;1256;138478;-61
2024/02/07 05:40:30;;;;;;;16.80;3.50;;;;;;;4.81;74.43;98699.63;109094;1256;61215;-61
2024/02/07 05:42:59;;;;;;;19.70;3.50;;;;;;;4.87;74.63;98701.98;107354;1254;138563;-60
2024/02/07 05:45:25;;;;;;;17.20;3.50;;;;;;;4.93;74.74;98692.86;109182;1254;65709;-60
2024/02/07 05:47:52;;;;;;;17.10;3.00;;;;;;;4.96;74.98;98690.99;105604;1259;73167;-68
2024/02/07 05:50:19;;;;;;;20.90;3.80;;;;;;;4.99;75.09;98691.92;104953;1254;138301;-68
2024/02/07 05:52:45;;;;;;;18.80;3.70;;;;;;;5.02;75.15;98694.38;105152;1259;61951;-69
2024/02/07 05:55:12;;;;;;;17.90;3.40;;;;;;;5.05;75.20;98699.64;104991;1259;138709;-69
2024/02/07 05:57:39;;;;;;;13.90;3.30;;;;;;;5.07;75.40;98708.19;105085;1254;67306;-68
2024/02/07 06:00:08;;;;;;;10.30;2.50;;;;;;;5.07;75.49;98712.01;105041;1254;72146;-67
2024/02/07 06:02:35;;;;;;;8.30;2.20;;;;;;;5.01;75.49;98718.01;109058;1254;138602;-67
2024/02/07 06:05:03;;;;;;;7.60;2.00;;;;;;;4.96;75.61;98727.15;109216;1254;60056;-61
2024/02/07 06:07:30;;;;;;;9.80;2.50;;;;;;;4.93;75.70;98733.00;107569;1257;138545;-62
2024/02/07 06:09:57;;;;;;;15.10;2.40;;;;;;;4.87;75.92;98737.96;105160;1258;66949;-68
2024/02/07 06:12:24;;;;;;;8.70;2.30;;;;;;;4.80;75.81;98741.86;104943;1257;138780;-65
2024/02/07 06:14:52;;;;;;;10.80;2.50;;;;;;;4.73;75.92;98743.83;104844;1256;62178;-66
2024/02/07 06:17:18;;;;;;;9.10;2.30;;;;;;;4.67;76.13;98748.59;105021;1257;62053;-68
2024/02/07 06:19:45;;;;;;;13.20;2.70;;;;;;;4.60;76.24;98747.78;104875;1255;138971;-60
2024/02/07 06:22:13;;;;;;;9.80;2.40;;;;;;;4.54;76.40;98746.46;105055;1258;65368;-61
2024/02/07 06:24:40;;;;;;;9.80;2.60;;;;;;;4.47;76.48;98748.25;104844;1259;138479;-62
2024/02/07 06:27:06;;;;;;;15.60;2.80;;;;;;;4.35;76.44;98749.61;104975;1257;62146;-61
2024/02/07 06:29:33;;;;;;;11.20;2.80;;;;;;;4.24;76.64;98752.73;105155;1254;62053;-61
2024/02/07 06:32:00;;;;;;;10.10;2.50;;;;;;;4.15;76.70;98751.34;105000;1259;138965;-61
2024/02/07 06:34:31;;;;;;;9.50;2.80;;;;;;;4.08;76.83;98750.85;106486;1256;68387;-61
2024/02/07 06:36:59;;;;;;;15.40;3.30;;;;;;;4.03;77.00;98756.33;104842;1258;138885;-62
2024/02/07 06:39:26;;;;;;;10.00;2.90;;;;;;;3.99;77.19;98753.99;109125;1254;60701;-62
2024/02/07 06:41:53;;;;;;;11.60;3.30;;;;;;;3.97;77.19;98759.15;109239;1254;60160;-62
2024/02/07 06:44:20;;;;;;;14.30;3.40;;;;;;;3.96;77.27;98760.02;109119;1254;138771;-60
2024/02/07 06:46:47;;;;;;;15.60;3.30;;;;;;;3.98;77.36;98766.30;109220;1254;67460;-60
2024/02/07 06:49:14;;;;;;;12.70;4.00;;;;;;;4.00;77.29;98765.48;108000;1254;138098;-61
2024/02/07 06:51:41;;;;;;;15.10;3.40;;;;;;;4.04;77.41;98768.85;105106;1258;62089;-62
2024/02/07 06:54:07;;;;;;;15.80;3.90;;;;;;;4.12;77.54;98768.28;105071;1257;62169;-61
2024/02/07 06:56:34;;;;;;;25.60;3.70;;;;;;;4.22;77.63;98769.02;104963;1254;138287;-61
2024/02/07 06:59:01;;;;;;;17.90;4.90;;;;;;;4.33;77.80;98769.36;105035;1259;65474;-61
2024/02/07 07:01:28;;;;;;;20.70;4.20;;;;;;;4.42;77.60;98766.93;104869;1258;138210;-61
2024/02/07 07:03:56;;;;;;;15.30;3.30;;;;;;;4.49;77.64;98767.05;104816;1254;62165;-61
2024/02/07 07:06:23;;;;;;;16.10;3.40;;;;;;;4.57;77.59;98771.70;109043;1256;139243;-62
2024/02/07 07:08:51;;;;;;;15.80;3.90;;;;;;;4.63;77.52;98779.27;109232;1254;76676;-61
2024/02/07 07:11:18;;;;;;;26.50;3.80;;;;;;;4.71;77.35;98781.16;109220;1254;66255;-63
2024/02/07 07:13:44;;;;;;;18.80;3.60;;;;;;;4.78;77.23;98783.01;109127;1254;138588;-62
2024/02/07 07:16:11;;;;;;;19.20;3.80;;;;;;;4.86;77.16;98784.54;107972;1254;62066;-61
2024/02/07 07:18:38;;;;;;;12.20;3.20;;;;;;;4.94;76.99;98779.96;104715;1256;138523;-61
2024/02/07 07:21:04;;;;;;;15.80;3.40;;;;;;;5.02;76.96;98774.17;105049;1255;76084;-62
2024/02/07 07:23:31;;;;;;;29.00;9.70;;;;;;;5.10;76.97;98777.77;104975;1259;66383;-61
2024/02/07 07:25:58;;;;;;;19.50;5.40;;;;;;;5.19;76.73;98778.25;105093;1254;138257;-62
2024/02/07 07:28:25;;;;;;;25.60;5.80;;;;;;;5.24;76.57;98777.11;105015;1259;62076;-62
2024/02/07 07:30:54;;;;;;;16.00;5.20;;;;;;;5.29;76.55;98781.35;104927;1258;138126;-62
2024/02/07 07:33:23;;;;;;;23.70;5.60;;;;;;;5.34;76.51;98784.38;109152;1254;75974;-60
2024/02/07 07:35:49;;;;;;;16.90;5.50;;;;;;;5.36;76.51;98788.24;109212;1256;64735;-60
2024/02/07 07:38:16;;;;;;;19.40;4.40;;;;;;;5.37;76.32;98784.77;108862;1257;138767;-61
2024/02/07 07:40:43;;;;;;;16.00;3.60;;;;;;;5.37;76.33;98785.83;109208;1254;59684;-61
2024/02/07 07:43:09;;;;;;;16.70;4.70;;;;;;;5.40;76.30;98789.50;106827;1254;138746;-61
2024/02/07 07:45:36;;;;;;;22.80;7.10;;;;;;;5.45;76.36;98787.14;105110;1259;76559;-61
2024/02/07 07:48:03;;;;;;;19.50;4.40;;;;;;;5.50;76.37;98795.05;105011;1258;66820;-61
2024/02/07 07:50:30;;;;;;;20.00;5.00;;;;;;;5.54;76.18;98794.77;107926;1254;138495;-61
2024/02/07 07:52:57;;;;;;;18.10;5.10;;;;;;;5.58;76.07;98794.96;104899;1261;62064;-61
2024/02/07 07:55:24;;;;;;;18.20;4.30;;;;;;;5.62;76.07;98801.45;104959;1254;138218;-61
2024/02/07 07:57:51;;;;;;;65.60;34.60;;;;;;;5.64;75.83;98801.14;104966;1254;76072;-60
2024/02/07 08:00:18;;;;;;;21.90;8.70;;;;;;;5.68;75.90;98804.50;104814;1257;64882;-62
2024/02/07 08:02:44;;;;;;;18.50;5.50;;;;;;;5.73;75.89;98810.66;109061;1254;137678;-61
2024/02/07 08:05:11;;;;;;;17.10;5.30;;;;;;;5.78;75.79;98815.77;106892;1256;62175;-62
2024/02/07 08:07:38;;;;;;;17.60;4.90;;;;;;;5.83;75.65;98815.14;105010;1255;138587;-61
2024/02/07 08:10:05;;;;;;;18.90;8.10;;;;;;;5.89;75.78;98813.83;105036;1254;75702;-62
2024/02/07 08:12:32;;;;;;;11.70;5.70;;;;;;;5.98;75.85;98816.05;109079;1254;139343;-61
2024/02/07 08:14:59;;;;;;;11.70;3.90;;;;;;;6.06;75.68;98816.67;108922;1254;72658;-62
2024/02/07 08:17:25;;;;;;;13.10;3.90;;;;;;;6.11;75.56;98823.00;109169;1254;60045;-60
2024/02/07 08:19:52;;;;;;;12.50;3.40;;;;;;;6.10;75.22;98821.26;108485;1254;138592;-62
2024/02/07 08:22:19;;;;;;;13.60;4.40;;;;;;;6.11;75.07;98823.87;105060;1257;76560;-62
2024/02/07 08:24:46;;;;;;;16.90;4.00;;;;;;;6.10;74.88;98823.52;109058;1254;138489;-62
2024/02/07 08:27:12;;;;;;;16.70;4.30;;;;;;;6.12;74.90;98828.42;109189;1254;71537;-61
2024/02/07 08:29:39;;;;;;;16.50;4.50;;;;;;;6.17;74.85;98829.35;109140;1254;59811;-61
2024/02/07 08:32:06;;;;;;;13.80;4.00;;;;;;;6.21;74.54;98833.22;109043;1254;137566;-61
2024/02/07 08:34:33;;;;;;;13.10;3.50;;;;;;;6.25;74.65;98841.98;109220;1254;74235;-61
2024/02/07 08:37:00;;;;;;;13.90;4.00;;;;;;;6.31;74.57;98840.83;109077;1254;138557;-61
2024/02/07 08:39:27;;;;;;;14.50;3.90;;;;;;;6.36;74.32;98848.21;109183;1254;73942;-61
2024/02/07 08:41:54;;;;;;;14.80;3.40;;;;;;;6.34;74.20;98855.50;109197;1255;60050;-61
2024/02/07 08:44:20;;;;;;;16.20;3.90;;;;;;;6.33;74.07;98860.00;109133;1256;138001;-61
2024/02/07 08:46:47;;;;;;;16.40;3.80;;;;;;;6.17;73.76;98870.61;107349;1257;75897;-61
2024/02/07 08:49:18;;;;;;;10.80;2.70;;;;;;;5.97;73.74;98874.36;105044;1257;137812;-60
2024/02/07 08:51:45;;;;;;;11.30;3.00;;;;;;;5.64;73.75;98883.45;105118;1258;72668;-61
2024/02/07 08:54:12;;;;;;;11.10;2.20;;;;;;;5.23;74.08;98891.17;104831;1261;62141;-60
2024/02/07 08:56:39;;;;;;;6.90;2.40;;;;;;;4.96;75.01;98898.36;105072;1254;138948;-61
2024/02/07 08:59:05;;;;;;;10.60;2.80;;;;;;;4.83;75.58;98895.02;105152;1258;76310;-61
2024/02/07 09:01:32;;;;;;;7.40;2.70;;;;;;;4.80;76.04;98891.45;104771;1257;138350;-61
2024/02/07 09:03:59;;;;;;;8.40;2.70;;;;;;;4.77;76.32;98894.20;105035;1254;71134;-62
2024/02/07 09:06:25;;;;;;;13.20;2.90;;;;;;;4.75;76.46;98895.20;104960;1259;138401;-62
2024/02/07 09:08:52;;;;;;;8.80;2.80;;;;;;;4.76;76.67;98892.27;105134;1259;62171;-62
2024/02/07 09:11:19;;;;;;;11.10;3.30;;;;;;;4.79;76.86;98892.66;105451;1255;75313;-61
2024/02/07 09:13:45;;;;;;;6.90;3.10;;;;;;;4.85;77.13;98901.83;105013;1257;139106;-61
2024/02/07 09:16:12;;;;;;;8.70;2.90;;;;;;;4.92;77.19;98901.41;105126;1258;71883;-61
2024/02/07 09:18:39;;;;;;;10.10;4.30;;;;;;;5.00;77.22;98905.04;104992;1257;138531;-61
2024/02/07 09:21:06;;;;;;;6.00;2.30;;;;;;;5.10;77.10;98909.02;105236;1259;61986;-60
2024/02/07 09:23:32;;;;;;;9.10;2.90;;;;;;;5.20;76.95;98916.16;104847;1257;357660;-60
2024/02/07 09:25:59;;;;;;;11.70;3.00;;;;;;;5.32;77.02;98925.74;105041;1259;137823;-60
2024/02/07 09:28:26;;;;;;;5.80;2.40;;;;;;;5.46;77.01;98938.33;105010;1257;73916;-59
2024/02/07 09:30:52;;;;;;;9.90;3.20;;;;;;;5.57;76.71;98944.94;104915;1256;137940;-61
2024/02/07 09:33:19;;;;;;;12.90;6.40;;;;;;;5.62;76.59;98948.51;105052;1259;62162;-61
2024/02/07 09:35:46;;;;;;;7.10;2.80;;;;;;;5.72;76.42;98952.65;105037;1257;75253;-61
2024/02/07 09:38:12;;;;;;;8.10;2.60;;;;;;;5.72;76.03;98958.40;105019;1254;138538;-61
2024/02/07 09:40:39;;;;;;;6.70;2.80;;;;;;;5.75;75.93;98953.75;105016;1259;73578;-61
2024/02/07 09:43:06;;;;;;;9.20;3.00;;;;;;;5.76;75.78;98959.34;104896;1257;138954;-60
2024/02/07 09:45:34;;;;;;;9.10;3.00;;;;;;;5.79;75.81;98959.91;105013;1257;62165;-60
2024/02/07 09:48:13;;;;;;;7.60;2.20;;;;;;;5.83;75.63;98958.05;104995;1260;74054;-61
2024/02/07 09:50:39;;;;;;;7.10;2.30;;;;;;;5.85;75.44;98964.70;109084;1254;137643;-61
2024/02/07 09:53:06;;;;;;;8.70;2.70;;;;;;;5.88;75.20;98962.30;109046;1254;72645;-69
2024/02/07 09:55:33;;;;;;;8.20;2.30;;;;;;;5.90;75.02;98958.49;109103;1255;137558;-68
2024/02/07 09:58:00;;;;;;;7.50;2.70;;;;;;;5.89;74.73;98968.06;105311;1256;64027;-67
2024/02/07 10:00:27;;;;;;;9.90;2.70;;;;;;;5.92;74.92;98964.27;104843;1260;138598;-66
2024/02/07 10:02:53;;;;;;;10.60;2.50;;;;;;;6.00;74.94;98966.69;104840;1261;65869;-68
2024/02/07 10:05:20;;;;;;;6.70;2.70;;;;;;;6.07;74.64;98971.66;104914;1260;73743;-67
2024/02/07 10:07:51;;;;;;;6.40;2.70;;;;;;;6.03;74.31;98973.52;104980;1255;138569;-68
2024/02/07 10:10:18;;;;;;;7.90;3.20;;;;;;;6.00;74.26;98981.31;109162;1255;60914;-68
2024/02/07 10:12:45;;;;;;;8.10;2.80;;;;;;;6.00;74.23;98986.89;109102;1254;138533;-69
2024/02/07 10:15:12;;;;;;;9.40;3.00;;;;;;;6.00;74.12;98991.59;109031;1256;65466;-68
2024/02/07 10:17:38;;;;;;;9.50;3.10;;;;;;;6.03;74.10;98996.34;109022;1256;73447;-69
2024/02/07 10:20:09;;;;;;;16.90;4.70;;;;;;;6.12;74.24;98997.52;109149;1255;137698;-67
2024/02/07 10:22:42;;;;;;;8.60;2.90;;;;;;;6.24;74.37;98999.60;109199;1255;60174;-68
2024/02/07 10:25:13;;;;;;;8.90;3.00;;;;;;;6.38;74.23;99006.23;109076;1254;137634;-68
2024/02/07 10:27:40;;;;;;;5.30;2.20;;;;;;;6.49;74.12;99002.55;108995;1255;67276;-68
2024/02/07 10:30:08;;;;;;;7.20;2.80;;;;;;;6.57;73.64;99006.50;109196;1257;70382;-68
2024/02/07 10:32:35;;;;;;;8.50;2.70;;;;;;;6.59;73.27;99007.23;109116;1254;138088;-68
2024/02/07 10:35:04;;;;;;;7.70;2.30;;;;;;;6.58;72.99;99004.92;109060;1254;60110;-69
2024/02/07 10:37:40;;;;;;;7.90;2.90;;;;;;;6.58;73.05;99004.94;109113;1258;137682;-68
2024/02/07 10:40:07;;;;;;;5.30;2.40;;;;;;;6.61;72.87;99008.29;109205;1257;66053;-68
2024/02/07 10:42:34;;;;;;;5.80;2.40;;;;;;;6.58;72.45;99009.82;108905;1256;139911;-67
2024/02/07 10:45:05;;;;;;;5.80;2.50;;;;;;;6.50;72.38;99010.58;109202;1254;60041;-68
2024/02/07 10:47:35;;;;;;;4.40;2.60;;;;;;;6.44;72.23;99019.56;109261;1255;60059;-68
2024/02/07 10:50:02;;;;;;;5.20;2.50;;;;;;;6.26;71.30;99022.10;109097;1257;138025;-67
2024/02/07 10:52:29;;;;;;;5.40;2.70;;;;;;;6.06;71.23;99022.50;109214;1254;67649;-68
2024/02/07 10:54:56;;;;;;;3.10;1.90;;;;;;;5.92;71.29;99023.65;109098;1255;137958;-68
2024/02/07 10:57:38;;;;;;;3.20;1.60;;;;;;;5.87;71.44;99030.35;108919;1254;60173;-67
2024/02/07 11:00:05;;;;;;;3.00;1.40;;;;;;;5.80;71.17;99031.29;109204;1254;59684;-68
2024/02/07 11:02:32;;;;;;;4.50;1.80;;;;;;;5.69;70.99;99032.50;108804;1262;138372;-67
2024/02/07 11:04:59;;;;;;;4.90;2.30;;;;;;;5.62;71.13;99042.64;109199;1254;65698;-67
2024/02/07 11:07:26;;;;;;;5.20;1.90;;;;;;;5.58;71.18;99047.45;105189;1261;137924;-66
2024/02/07 11:09:53;;;;;;;2.80;1.70;;;;;;;5.59;71.41;99052.67;105251;1257;61942;-68
2024/02/07 11:12:20;;;;;;;4.00;1.80;;;;;;;5.58;71.16;99057.02;104947;1254;62051;-68
2024/02/07 11:14:47;;;;;;;3.70;1.70;;;;;;;5.52;71.30;99058.81;105105;1259;77338;-68
2024/02/07 11:17:15;;;;;;;3.60;1.60;;;;;;;5.50;71.23;99062.27;105042;1258;64424;-67
2024/02/07 11:19:44;;;;;;;5.70;1.80;;;;;;;5.51;71.23;99062.80;104951;1255;138416;-68
2024/02/07 11:22:21;;;;;;;2.90;1.70;;;;;;;5.57;70.99;99069.00;109177;1258;59768;-66
2024/02/07 11:24:48;;;;;;;3.40;1.60;;;;;;;5.64;70.85;99071.76;108624;1257;137959;-69
2024/02/07 11:27:15;;;;;;;3.90;1.80;;;;;;;5.73;70.92;99083.20;104892;1255;76061;-67
2024/02/07 11:29:42;;;;;;;3.50;1.90;;;;;;;5.68;70.26;99093.73;104765;1257;65959;-67
2024/02/07 11:32:09;;;;;;;5.10;3.40;;;;;;;5.54;70.40;99105.64;104848;1259;138235;-67
2024/02/07 11:34:40;;;;;;;3.70;1.60;;;;;;;5.28;70.03;99112.12;107007;1257;62177;-69
2024/02/07 11:37:10;;;;;;;2.30;1.30;;;;;;;4.97;70.32;99106.28;108981;1254;137655;-67
2024/02/07 11:39:41;;;;;;;1.90;1.00;;;;;;;4.85;70.61;99104.30;109206;1254;75984;-67
2024/02/07 11:42:14;;;;;;;2.00;0.90;;;;;;;4.80;70.46;99113.92;109039;1255;66002;-67
2024/02/07 11:44:55;;;;;;;3.30;1.40;;;;;;;4.82;70.60;99114.30;108940;1255;137979;-67
2024/02/07 11:47:26;;;;;;;2.60;0.90;;;;;;;4.96;70.97;99118.09;108613;1254;60030;-60
2024/02/07 11:50:04;;;;;;;2.50;1.50;;;;;;;5.09;70.92;99124.27;104860;1262;138277;-61
2024/02/07 11:52:35;;;;;;;4.20;1.50;;;;;;;5.14;70.85;99124.19;109227;1254;75347;-61
2024/02/07 11:55:23;;;;;;;3.00;1.60;;;;;;;5.16;70.93;99121.81;108834;1255;138973;-62
2024/02/07 11:57:51;;;;;;;3.60;2.10;;;;;;;5.25;71.13;99121.63;105551;1257;73139;-60
2024/02/07 12:00:19;;;;;;;7.00;2.90;;;;;;;5.34;71.10;99129.30;105122;1254;62089;-60
2024/02/07 12:02:53;;;;;;;4.50;2.70;;;;;;;5.43;71.27;99130.83;104771;1257;137589;-61
2024/02/07 12:05:20;;;;;;;4.10;3.40;;;;;;;5.46;71.23;99129.00;104874;1257;75408;-61
2024/02/07 12:07:47;;;;;;;3.70;2.70;;;;;;;5.52;71.48;99130.14;104749;1262;137756;-61
2024/02/07 12:10:13;;;;;;;3.70;2.30;;;;;;;5.65;71.67;99135.79;104891;1255;73540;-62
2024/02/07 12:12:40;;;;;;;4.70;2.20;;;;;;;5.79;71.54;99145.09;105079;1258;139119;-61
2024/02/07 12:15:07;;;;;;;4.70;2.50;;;;;;;5.80;71.23;99151.73;105003;1257;61939;-61
2024/02/07 12:17:37;;;;;;;4.20;1.80;;;;;;;5.70;71.09;99157.45;105198;1254;76273;-61
2024/02/07 12:20:04;;;;;;;3.40;1.80;;;;;;;5.52;70.86;99167.21;104911;1259;137802;-60
2024/02/07 12:22:31;;;;;;;7.50;2.30;;;;;;;5.34;70.84;99173.63;104955;1259;71657;-60
2024/02/07 12:25:01;;;;;;;4.70;2.30;;;;;;;5.10;70.80;99182.70;104904;1257;138764;-61
2024/02/07 12:27:28;;;;;;;3.20;2.00;;;;;;;4.87;71.03;99185.66;108217;1258;60367;-61
2024/02/07 12:29:56;;;;;;;6.00;2.30;;;;;;;4.80;71.56;99187.60;105202;1255;74757;-67
2024/02/07 12:32:23;;;;;;;4.10;2.00;;;;;;;4.83;71.86;99184.54;108860;1257;138631;-68